Calumet — WDE3568 — position and weather

sailwx.info

Track history (hours):
 
Tides and Currents Weather Stations Pressure Air Temp Water Temp Dewpoint Dewpoint Depression Visibility Wind Speed Wind Dir Waves Ship Positions

Calumet

Owner: Grand River Navigation Company, Traverse City, MI. More information available from US FCC via Universal Licensing System and Coast Guard Vessel Documentation Center.

Last reported at 2014-Sep-28 16:12 UTC. Time now 2014-Oct-02 10:27 UTC.
Position N 45°37' W 084°06'.

Length 192 m; draft 6.3 m.

Type: Cargo ship. MMSI: 367132630.

Date/timePositionNaut miles runAvg speedWind from/ knotsBaromVisibWave heightAir tempDewpointWater temp
2014-Sep-28 16:12N 45°37' W 084°06'811.8
2014-Sep-28 15:33N 45°41' W 084°16'1111.1
2014-Sep-28 14:33N 45°43' W 084°31'1211.7
2014-Sep-28 13:33N 45°49' W 084°46'1211.9
2014-Sep-28 12:33N 45°51' W 085°03'1211.8
2014-Sep-28 11:33N 45°52' W 085°20'1211.6
2014-Sep-28 10:33N 45°53' W 085°36'1211.9
2014-Sep-28 09:34N 45°48' W 085°52'1211.9
2014-Sep-28 08:33N 45°42' W 086°07'1211.8
2014-Sep-28 07:33N 45°36' W 086°21'2211.2
2014-Sep-28 05:33N 45°27' W 086°50'2010.2
2014-Sep-28 03:34N 45°45' W 087°02'1 1.2
2014-Sep-28 02:33N 45°46' W 087°03'0 0.0
2014-Sep-28 01:34N 45°46' W 087°03'0 0.0
2014-Sep-28 00:34N 45°46' W 087°03'0 0.0
2014-Sep-27 23:33N 45°46' W 087°03'0 0.0
2014-Sep-27 22:33N 45°46' W 087°03'0 0.0
2014-Sep-27 21:34N 45°46' W 087°03'0 0.0
2014-Sep-27 20:33N 45°46' W 087°03'0 0.0
2014-Sep-27 19:33N 45°46' W 087°03'0 0.0
2014-Sep-27 18:33N 45°46' W 087°03'5 4.5
2014-Sep-27 17:33N 45°42' W 087°02'1311.7
2014-Sep-27 16:29N 45°30' W 087°08'1112.3
2014-Sep-27 15:34N 45°20' W 087°17'20 1.0
2014-Sep-26 20:21N 45°02' W 087°27'1311.2
2014-Sep-26 19:11N 45°14' W 087°21'1011.8
2014-Sep-26 18:20N 45°20' W 087°09'2011.4
2014-Sep-26 16:33N 45°27' W 086°42'1212.0
2014-Sep-26 15:33N 45°33' W 086°27'1212.0
2014-Sep-26 14:33N 45°39' W 086°12'1212.0
2014-Sep-26 13:34N 45°44' W 085°57'1211.8
2014-Sep-26 12:33N 45°50' W 085°42'1111.3
2014-Sep-26 11:33N 45°54' W 085°27'1211.7
2014-Sep-26 10:33N 45°52' W 085°10'1211.8
2014-Sep-26 09:33N 45°50' W 084°53'1211.6
2014-Sep-26 08:33N 45°47' W 084°38'1211.6
2014-Sep-26 07:33N 45°41' W 084°23'1111.1
2014-Sep-26 06:33N 45°39' W 084°07'1211.7
2014-Sep-26 05:33N 45°34' W 083°52'243 8.0
2014-Sep-24 23:00N 41°42' W 082°12'   070 / 151032.810.8 0.519.4
2014-Sep-22 06:00N 41°30' W 081°42'   300 / 251016.5 5.4 2.013.3
Track history (hours):
 
Tides and Currents Weather Stations Pressure Air Temp Water Temp Dewpoint Dewpoint Depression Visibility Wind Speed Wind Dir Waves Ship Positions

Calumet

Owner: Grand River Navigation Company, Traverse City, MI. More information available from US FCC via Universal Licensing System and Coast Guard Vessel Documentation Center.

Last reported at 2014-Sep-28 16:12 UTC. Time now 2014-Oct-02 10:27 UTC.
Position N 45°37' W 084°06'.

Length 192 m; draft 6.3 m.

Type: Cargo ship. MMSI: 367132630.

Date/timePositionNaut miles runAvg speedWind from/ knotsBaromVisibWave heightAir tempDewpointWater temp
2014-Sep-28 16:12N 45°37' W 084°06'811.8
2014-Sep-28 15:33N 45°41' W 084°16'1111.1
2014-Sep-28 14:33N 45°43' W 084°31'1211.7
2014-Sep-28 13:33N 45°49' W 084°46'1211.9
2014-Sep-28 12:33N 45°51' W 085°03'1211.8
2014-Sep-28 11:33N 45°52' W 085°20'1211.6
2014-Sep-28 10:33N 45°53' W 085°36'1211.9
2014-Sep-28 09:34N 45°48' W 085°52'1211.9
2014-Sep-28 08:33N 45°42' W 086°07'1211.8
2014-Sep-28 07:33N 45°36' W 086°21'2211.2
2014-Sep-28 05:33N 45°27' W 086°50'2010.2
2014-Sep-28 03:34N 45°45' W 087°02'1 1.2
2014-Sep-28 02:33N 45°46' W 087°03'0 0.0
2014-Sep-28 01:34N 45°46' W 087°03'0 0.0
2014-Sep-28 00:34N 45°46' W 087°03'0 0.0
2014-Sep-27 23:33N 45°46' W 087°03'0 0.0
2014-Sep-27 22:33N 45°46' W 087°03'0 0.0
2014-Sep-27 21:34N 45°46' W 087°03'0 0.0
2014-Sep-27 20:33N 45°46' W 087°03'0 0.0
2014-Sep-27 19:33N 45°46' W 087°03'0 0.0
2014-Sep-27 18:33N 45°46' W 087°03'5 4.5
2014-Sep-27 17:33N 45°42' W 087°02'1311.7
2014-Sep-27 16:29N 45°30' W 087°08'1112.3
2014-Sep-27 15:34N 45°20' W 087°17'20 1.0
2014-Sep-26 20:21N 45°02' W 087°27'1311.2
2014-Sep-26 19:11N 45°14' W 087°21'1011.8
2014-Sep-26 18:20N 45°20' W 087°09'2011.4
2014-Sep-26 16:33N 45°27' W 086°42'1212.0
2014-Sep-26 15:33N 45°33' W 086°27'1212.0
2014-Sep-26 14:33N 45°39' W 086°12'1212.0
2014-Sep-26 13:34N 45°44' W 085°57'1211.8
2014-Sep-26 12:33N 45°50' W 085°42'1111.3
2014-Sep-26 11:33N 45°54' W 085°27'1211.7
2014-Sep-26 10:33N 45°52' W 085°10'1211.8
2014-Sep-26 09:33N 45°50' W 084°53'1211.6
2014-Sep-26 08:33N 45°47' W 084°38'1211.6
2014-Sep-26 07:33N 45°41' W 084°23'1111.1
2014-Sep-26 06:33N 45°39' W 084°07'1211.7
2014-Sep-26 05:33N 45°34' W 083°52'243 8.0
2014-Sep-24 23:00N 41°42' W 082°12'   070 / 151032.810.8 0.519.4
2014-Sep-22 06:00N 41°30' W 081°42'   300 / 251016.5 5.4 2.013.3

Dump ship's entire track history